This is the latest recevied weather packets stored in our database for station/object KB1FPD. If no packets are shown the sender has not sent any weather packets the latest 1 day(s).
| Time | Temp. | Humidity | Pressure | Rain* | Wind** | Luminosity | Snow |
|---|---|---|---|---|---|---|---|
| 1778015178 | 25° C | 43% | 1009.2 hPa | 0 mm | 4.02 m/s, 229° | - | - |
| 1778014875 | 25° C | 43% | 1009.1 hPa | 0 mm | 4.02 m/s, 178° | - | - |
| 1778014571 | 25.56° C | 43% | 1009.1 hPa | 0 mm | 4.02 m/s, 168° | - | - |
| 1778014270 | 26.11° C | 43% | 1009.1 hPa | 0 mm | 3.58 m/s, 164° | - | - |
| 1778013965 | 26.11° C | 41% | 1009.1 hPa | 0 mm | 3.58 m/s, 162° | - | - |
| 1778013667 | 26.67° C | 46% | 1009.1 hPa | 0 mm | 3.13 m/s, 219° | - | - |
| 1778013367 | 26.67° C | 45% | 1009.1 hPa | 0 mm | 3.13 m/s, 226° | - | - |
| 1778013058 | 26.67° C | 42% | 1009 hPa | 0 mm | 2.68 m/s, 224° | - | - |
| 1778012758 | 26.67° C | 41% | 1009.1 hPa | 0 mm | 3.58 m/s, 230° | - | - |
| 1778012458 | 26.11° C | 42% | 1008.9 hPa | 0 mm | 3.58 m/s, 174° | - | - |
| 1778012153 | 26.11° C | 46% | 1009.3 hPa | 0 mm | 3.58 m/s, 213° | - | - |
| 1778011863 | 26.11° C | 43% | 1009.1 hPa | 0 mm | 3.13 m/s, 170° | - | - |
| 1778011555 | 26.11° C | 49% | 1009.2 hPa | 0 mm | 2.68 m/s, 220° | - | - |
| 1778011255 | 25.56° C | 48% | 1009.3 hPa | 0 mm | 3.58 m/s, 243° | - | - |
| 1778010954 | 25.56° C | 44% | 1009.2 hPa | 0 mm | 3.58 m/s, 208° | - | - |
| 1778010652 | 26.11° C | 45% | 1009.4 hPa | 0 mm | 3.58 m/s, 228° | - | - |
| 1778010352 | 26.11° C | 45% | 1009.4 hPa | 0 mm | 3.58 m/s, 198° | - | - |
| 1778010052 | 25.56° C | 48% | 1009.4 hPa | 0 mm | 3.58 m/s, 154° | - | - |
| 1778009753 | 25.56° C | 46% | 1009.5 hPa | 0 mm | 3.58 m/s, 178° | - | - |
| 1778009450 | 25.56° C | 48% | 1009.6 hPa | 0 mm | 3.58 m/s, 213° | - | - |
| 1778009150 | 25.56° C | 46% | 1009.6 hPa | 0 mm | 3.13 m/s, 168° | - | - |
| 1778008849 | 25.56° C | 47% | 1009.7 hPa | 0 mm | 3.13 m/s, 165° | - | - |
| 1778008548 | 25.56° C | 49% | 1009.7 hPa | 0 mm | 3.13 m/s, 217° | - | - |
| 1778008250 | 25.56° C | 47% | 1009.8 hPa | 0 mm | 3.58 m/s, 161° | - | - |
| 1778007950 | 25° C | 47% | 1009.8 hPa | 0 mm | 4.02 m/s, 176° | - | - |
* Rain latest hour (hover to see other rain measurements)
** Current wind speed in m/s (hover to see current wind gust speed)